sensor_id;sensor_type;location;lat;lon;timestamp;P1;durP1;ratioP1;P2;durP2;ratioP2
11646;SDS011;5880;52.342;9.662;2023-09-08T00:02:00;4.03;;;3.63;;
11646;SDS011;5880;52.342;9.662;2023-09-08T00:04:26;4.28;;;3.88;;
11646;SDS011;5880;52.342;9.662;2023-09-08T00:06:51;3.85;;;3.47;;
11646;SDS011;5880;52.342;9.662;2023-09-08T00:09:17;3.65;;;3.35;;
11646;SDS011;5880;52.342;9.662;2023-09-08T00:11:43;4.18;;;3.78;;
11646;SDS011;5880;52.342;9.662;2023-09-08T00:14:08;4.22;;;3.60;;
11646;SDS011;5880;52.342;9.662;2023-09-08T00:16:34;4.25;;;3.85;;
11646;SDS011;5880;52.342;9.662;2023-09-08T00:19:00;4.05;;;3.65;;
11646;SDS011;5880;52.342;9.662;2023-09-08T00:21:26;4.20;;;3.80;;
11646;SDS011;5880;52.342;9.662;2023-09-08T00:23:52;5.55;;;4.07;;
11646;SDS011;5880;52.342;9.662;2023-09-08T00:26:18;5.15;;;4.15;;
11646;SDS011;5880;52.342;9.662;2023-09-08T00:28:45;4.03;;;3.63;;
11646;SDS011;5880;52.342;9.662;2023-09-08T00:31:12;4.22;;;3.80;;
11646;SDS011;5880;52.342;9.662;2023-09-08T00:33:37;4.10;;;3.67;;
11646;SDS011;5880;52.342;9.662;2023-09-08T00:36:03;4.40;;;4.00;;
11646;SDS011;5880;52.342;9.662;2023-09-08T00:38:29;4.47;;;4.05;;
11646;SDS011;5880;52.342;9.662;2023-09-08T00:40:55;4.05;;;3.53;;
11646;SDS011;5880;52.342;9.662;2023-09-08T00:43:21;5.05;;;4.10;;
11646;SDS011;5880;52.342;9.662;2023-09-08T00:45:46;4.40;;;3.88;;
11646;SDS011;5880;52.342;9.662;2023-09-08T00:48:13;4.57;;;3.80;;
11646;SDS011;5880;52.342;9.662;2023-09-08T00:50:39;4.00;;;3.60;;
11646;SDS011;5880;52.342;9.662;2023-09-08T00:53:05;4.57;;;3.92;;
11646;SDS011;5880;52.342;9.662;2023-09-08T00:55:32;4.10;;;3.80;;
11646;SDS011;5880;52.342;9.662;2023-09-08T00:57:59;4.30;;;3.90;;
11646;SDS011;5880;52.342;9.662;2023-09-08T01:00:25;4.63;;;4.13;;
11646;SDS011;5880;52.342;9.662;2023-09-08T01:02:51;4.80;;;3.78;;
11646;SDS011;5880;52.342;9.662;2023-09-08T01:05:17;4.38;;;3.97;;
11646;SDS011;5880;52.342;9.662;2023-09-08T01:07:44;4.03;;;3.60;;
11646;SDS011;5880;52.342;9.662;2023-09-08T01:10:12;4.15;;;3.75;;
11646;SDS011;5880;52.342;9.662;2023-09-08T01:12:38;4.55;;;4.13;;
11646;SDS011;5880;52.342;9.662;2023-09-08T01:15:05;4.45;;;4.05;;
11646;SDS011;5880;52.342;9.662;2023-09-08T01:17:32;4.60;;;4.18;;
11646;SDS011;5880;52.342;9.662;2023-09-08T01:20:01;4.30;;;3.90;;
11646;SDS011;5880;52.342;9.662;2023-09-08T01:25:52;4.53;;;4.13;;
11646;SDS011;5880;52.342;9.662;2023-09-08T01:28:26;4.47;;;4.07;;
11646;SDS011;5880;52.342;9.662;2023-09-08T01:30:54;4.32;;;3.92;;
11646;SDS011;5880;52.342;9.662;2023-09-08T01:33:21;4.07;;;3.75;;
11646;SDS011;5880;52.342;9.662;2023-09-08T01:35:48;4.90;;;4.40;;
11646;SDS011;5880;52.342;9.662;2023-09-08T01:38:15;4.47;;;4.07;;
11646;SDS011;5880;52.342;9.662;2023-09-08T01:40:41;4.55;;;4.15;;
11646;SDS011;5880;52.342;9.662;2023-09-08T01:43:07;4.75;;;4.15;;
11646;SDS011;5880;52.342;9.662;2023-09-08T01:45:32;4.88;;;4.28;;
11646;SDS011;5880;52.342;9.662;2023-09-08T01:47:58;4.40;;;4.00;;
11646;SDS011;5880;52.342;9.662;2023-09-08T01:50:24;4.88;;;4.22;;
11646;SDS011;5880;52.342;9.662;2023-09-08T01:52:50;4.47;;;4.07;;
11646;SDS011;5880;52.342;9.662;2023-09-08T01:55:16;4.25;;;3.85;;
11646;SDS011;5880;52.342;9.662;2023-09-08T01:57:42;4.38;;;3.97;;
11646;SDS011;5880;52.342;9.662;2023-09-08T02:00:09;4.45;;;4.00;;
11646;SDS011;5880;52.342;9.662;2023-09-08T02:02:36;5.18;;;4.68;;
11646;SDS011;5880;52.342;9.662;2023-09-08T02:05:01;4.43;;;4.03;;
11646;SDS011;5880;52.342;9.662;2023-09-08T02:07:28;4.57;;;4.18;;
11646;SDS011;5880;52.342;9.662;2023-09-08T02:09:54;5.38;;;4.28;;
11646;SDS011;5880;52.342;9.662;2023-09-08T02:12:20;4.97;;;4.45;;
11646;SDS011;5880;52.342;9.662;2023-09-08T02:14:46;4.47;;;4.07;;
11646;SDS011;5880;52.342;9.662;2023-09-08T02:17:12;4.55;;;4.15;;
11646;SDS011;5880;52.342;9.662;2023-09-08T02:19:38;4.30;;;3.90;;
11646;SDS011;5880;52.342;9.662;2023-09-08T02:22:03;4.97;;;4.22;;
11646;SDS011;5880;52.342;9.662;2023-09-08T02:24:29;4.63;;;4.18;;
11646;SDS011;5880;52.342;9.662;2023-09-08T02:26:55;4.72;;;4.22;;
11646;SDS011;5880;52.342;9.662;2023-09-08T02:29:20;4.82;;;4.30;;
11646;SDS011;5880;52.342;9.662;2023-09-08T02:31:47;4.35;;;3.95;;
11646;SDS011;5880;52.342;9.662;2023-09-08T02:34:13;4.72;;;4.20;;
11646;SDS011;5880;52.342;9.662;2023-09-08T02:36:39;4.68;;;4.28;;
11646;SDS011;5880;52.342;9.662;2023-09-08T02:39:05;4.75;;;4.20;;
11646;SDS011;5880;52.342;9.662;2023-09-08T02:41:31;4.68;;;4.10;;
11646;SDS011;5880;52.342;9.662;2023-09-08T02:43:57;4.63;;;4.15;;
11646;SDS011;5880;52.342;9.662;2023-09-08T02:46:23;4.57;;;4.15;;
11646;SDS011;5880;52.342;9.662;2023-09-08T02:48:49;5.75;;;4.35;;
11646;SDS011;5880;52.342;9.662;2023-09-08T02:51:16;4.90;;;4.35;;
11646;SDS011;5880;52.342;9.662;2023-09-08T02:53:41;4.80;;;4.40;;
11646;SDS011;5880;52.342;9.662;2023-09-08T02:56:07;4.53;;;4.13;;
11646;SDS011;5880;52.342;9.662;2023-09-08T02:58:34;4.90;;;4.40;;
11646;SDS011;5880;52.342;9.662;2023-09-08T03:01:13;4.35;;;3.95;;
11646;SDS011;5880;52.342;9.662;2023-09-08T03:03:41;4.50;;;4.10;;
11646;SDS011;5880;52.342;9.662;2023-09-08T03:06:07;4.50;;;4.10;;
11646;SDS011;5880;52.342;9.662;2023-09-08T03:08:34;4.88;;;4.38;;
11646;SDS011;5880;52.342;9.662;2023-09-08T03:11:02;5.28;;;4.45;;
11646;SDS011;5880;52.342;9.662;2023-09-08T03:13:29;4.97;;;4.47;;
11646;SDS011;5880;52.342;9.662;2023-09-08T03:15:55;5.43;;;4.40;;
11646;SDS011;5880;52.342;9.662;2023-09-08T03:18:22;4.38;;;3.97;;
11646;SDS011;5880;52.342;9.662;2023-09-08T03:20:48;5.07;;;4.10;;
11646;SDS011;5880;52.342;9.662;2023-09-08T03:23:15;4.60;;;4.07;;
11646;SDS011;5880;52.342;9.662;2023-09-08T03:25:42;4.82;;;4.35;;
11646;SDS011;5880;52.342;9.662;2023-09-08T03:28:08;5.53;;;4.38;;
11646;SDS011;5880;52.342;9.662;2023-09-08T03:30:34;5.32;;;4.13;;
11646;SDS011;5880;52.342;9.662;2023-09-08T03:33:00;4.88;;;4.47;;
11646;SDS011;5880;52.342;9.662;2023-09-08T03:35:25;5.18;;;4.57;;
11646;SDS011;5880;52.342;9.662;2023-09-08T03:37:51;4.95;;;4.50;;
11646;SDS011;5880;52.342;9.662;2023-09-08T03:40:17;5.93;;;4.45;;
11646;SDS011;5880;52.342;9.662;2023-09-08T03:42:42;5.10;;;4.60;;
11646;SDS011;5880;52.342;9.662;2023-09-08T03:45:08;6.15;;;4.40;;
11646;SDS011;5880;52.342;9.662;2023-09-08T03:47:34;4.60;;;4.20;;
11646;SDS011;5880;52.342;9.662;2023-09-08T03:50:00;5.25;;;4.75;;
11646;SDS011;5880;52.342;9.662;2023-09-08T03:52:26;5.43;;;4.40;;
11646;SDS011;5880;52.342;9.662;2023-09-08T03:54:51;4.93;;;4.43;;
11646;SDS011;5880;52.342;9.662;2023-09-08T03:57:17;4.88;;;4.38;;
11646;SDS011;5880;52.342;9.662;2023-09-08T03:59:43;4.82;;;4.43;;
11646;SDS011;5880;52.342;9.662;2023-09-08T04:02:09;4.53;;;4.13;;
11646;SDS011;5880;52.342;9.662;2023-09-08T04:04:35;5.10;;;4.55;;
11646;SDS011;5880;52.342;9.662;2023-09-08T04:07:00;5.43;;;4.47;;
11646;SDS011;5880;52.342;9.662;2023-09-08T04:09:26;4.72;;;4.32;;
11646;SDS011;5880;52.342;9.662;2023-09-08T04:11:53;5.38;;;4.80;;
11646;SDS011;5880;52.342;9.662;2023-09-08T04:14:20;6.55;;;4.93;;
11646;SDS011;5880;52.342;9.662;2023-09-08T04:16:48;4.90;;;4.50;;
11646;SDS011;5880;52.342;9.662;2023-09-08T04:19:14;5.80;;;4.78;;
11646;SDS011;5880;52.342;9.662;2023-09-08T04:21:40;5.40;;;4.90;;
11646;SDS011;5880;52.342;9.662;2023-09-08T04:24:06;5.30;;;4.80;;
11646;SDS011;5880;52.342;9.662;2023-09-08T04:26:32;5.65;;;4.80;;
11646;SDS011;5880;52.342;9.662;2023-09-08T04:28:57;5.97;;;4.65;;
11646;SDS011;5880;52.342;9.662;2023-09-08T04:31:23;7.47;;;4.93;;
11646;SDS011;5880;52.342;9.662;2023-09-08T04:33:49;4.85;;;4.35;;
11646;SDS011;5880;52.342;9.662;2023-09-08T04:36:14;5.13;;;4.63;;
11646;SDS011;5880;52.342;9.662;2023-09-08T04:38:40;4.43;;;4.03;;
11646;SDS011;5880;52.342;9.662;2023-09-08T04:41:06;5.45;;;4.47;;
11646;SDS011;5880;52.342;9.662;2023-09-08T04:43:32;5.90;;;4.75;;
11646;SDS011;5880;52.342;9.662;2023-09-08T04:45:58;5.47;;;4.78;;
11646;SDS011;5880;52.342;9.662;2023-09-08T04:48:23;5.00;;;4.50;;
11646;SDS011;5880;52.342;9.662;2023-09-08T04:50:49;5.03;;;4.55;;
11646;SDS011;5880;52.342;9.662;2023-09-08T04:53:16;5.32;;;4.50;;
11646;SDS011;5880;52.342;9.662;2023-09-08T04:55:42;6.00;;;4.95;;
11646;SDS011;5880;52.342;9.662;2023-09-08T04:58:08;5.53;;;4.90;;
11646;SDS011;5880;52.342;9.662;2023-09-08T05:00:34;5.50;;;5.00;;
11646;SDS011;5880;52.342;9.662;2023-09-08T05:03:00;5.03;;;4.53;;
11646;SDS011;5880;52.342;9.662;2023-09-08T05:05:25;4.78;;;4.35;;
11646;SDS011;5880;52.342;9.662;2023-09-08T05:07:51;5.30;;;4.80;;
11646;SDS011;5880;52.342;9.662;2023-09-08T05:10:21;5.75;;;4.68;;
11646;SDS011;5880;52.342;9.662;2023-09-08T05:12:47;5.38;;;4.88;;
11646;SDS011;5880;52.342;9.662;2023-09-08T05:15:14;6.72;;;5.10;;
11646;SDS011;5880;52.342;9.662;2023-09-08T05:17:41;5.68;;;4.75;;
11646;SDS011;5880;52.342;9.662;2023-09-08T05:20:08;5.10;;;4.65;;
11646;SDS011;5880;52.342;9.662;2023-09-08T05:22:34;5.82;;;5.07;;
11646;SDS011;5880;52.342;9.662;2023-09-08T05:25:01;5.35;;;4.82;;
11646;SDS011;5880;52.342;9.662;2023-09-08T05:27:27;6.22;;;4.80;;
11646;SDS011;5880;52.342;9.662;2023-09-08T05:29:53;5.40;;;4.72;;
11646;SDS011;5880;52.342;9.662;2023-09-08T05:32:19;5.40;;;4.90;;
11646;SDS011;5880;52.342;9.662;2023-09-08T05:34:45;5.20;;;4.60;;
11646;SDS011;5880;52.342;9.662;2023-09-08T05:37:10;5.65;;;5.05;;
11646;SDS011;5880;52.342;9.662;2023-09-08T05:39:36;5.90;;;4.75;;
11646;SDS011;5880;52.342;9.662;2023-09-08T05:42:02;5.47;;;4.97;;
11646;SDS011;5880;52.342;9.662;2023-09-08T05:44:28;5.80;;;4.90;;
11646;SDS011;5880;52.342;9.662;2023-09-08T05:46:54;5.45;;;4.88;;
11646;SDS011;5880;52.342;9.662;2023-09-08T05:49:19;5.18;;;4.68;;
11646;SDS011;5880;52.342;9.662;2023-09-08T05:51:46;5.45;;;4.95;;
11646;SDS011;5880;52.342;9.662;2023-09-08T05:54:11;5.25;;;4.75;;
11646;SDS011;5880;52.342;9.662;2023-09-08T05:56:37;5.40;;;4.80;;
11646;SDS011;5880;52.342;9.662;2023-09-08T05:59:03;4.85;;;4.45;;
11646;SDS011;5880;52.342;9.662;2023-09-08T06:01:30;5.22;;;4.65;;
11646;SDS011;5880;52.342;9.662;2023-09-08T06:03:56;5.53;;;4.93;;
11646;SDS011;5880;52.342;9.662;2023-09-08T06:06:22;5.80;;;5.13;;
11646;SDS011;5880;52.342;9.662;2023-09-08T06:08:47;5.07;;;4.57;;
11646;SDS011;5880;52.342;9.662;2023-09-08T06:11:13;5.68;;;5.07;;
11646;SDS011;5880;52.342;9.662;2023-09-08T06:13:39;4.88;;;4.47;;
11646;SDS011;5880;52.342;9.662;2023-09-08T06:16:05;5.68;;;5.10;;
11646;SDS011;5880;52.342;9.662;2023-09-08T06:18:31;5.85;;;4.63;;
11646;SDS011;5880;52.342;9.662;2023-09-08T06:20:57;4.82;;;4.40;;
11646;SDS011;5880;52.342;9.662;2023-09-08T06:23:23;4.97;;;4.47;;
11646;SDS011;5880;52.342;9.662;2023-09-08T06:25:49;5.18;;;4.68;;
11646;SDS011;5880;52.342;9.662;2023-09-08T06:28:14;4.68;;;4.22;;
11646;SDS011;5880;52.342;9.662;2023-09-08T06:30:40;4.75;;;4.35;;
11646;SDS011;5880;52.342;9.662;2023-09-08T06:33:09;4.22;;;3.83;;
11646;SDS011;5880;52.342;9.662;2023-09-08T06:35:35;5.22;;;4.32;;
11646;SDS011;5880;52.342;9.662;2023-09-08T06:38:01;4.65;;;4.25;;
11646;SDS011;5880;52.342;9.662;2023-09-08T06:40:29;4.65;;;4.25;;
11646;SDS011;5880;52.342;9.662;2023-09-08T06:42:55;4.50;;;4.10;;
11646;SDS011;5880;52.342;9.662;2023-09-08T06:45:21;5.05;;;4.03;;
11646;SDS011;5880;52.342;9.662;2023-09-08T06:47:47;4.65;;;4.25;;
11646;SDS011;5880;52.342;9.662;2023-09-08T06:50:15;4.18;;;3.88;;
11646;SDS011;5880;52.342;9.662;2023-09-08T06:52:40;4.65;;;4.25;;
11646;SDS011;5880;52.342;9.662;2023-09-08T06:55:06;5.53;;;4.47;;
11646;SDS011;5880;52.342;9.662;2023-09-08T06:57:33;5.13;;;4.30;;
11646;SDS011;5880;52.342;9.662;2023-09-08T06:59:58;4.95;;;4.47;;
11646;SDS011;5880;52.342;9.662;2023-09-08T07:02:24;4.57;;;4.18;;
11646;SDS011;5880;52.342;9.662;2023-09-08T07:04:49;4.07;;;3.67;;
11646;SDS011;5880;52.342;9.662;2023-09-08T07:07:16;4.50;;;4.10;;
11646;SDS011;5880;52.342;9.662;2023-09-08T07:09:43;5.07;;;3.88;;
11646;SDS011;5880;52.342;9.662;2023-09-08T07:12:08;4.18;;;3.88;;
11646;SDS011;5880;52.342;9.662;2023-09-08T07:14:34;4.20;;;3.80;;
11646;SDS011;5880;52.342;9.662;2023-09-08T07:17:00;4.45;;;4.05;;
11646;SDS011;5880;52.342;9.662;2023-09-08T07:19:26;4.22;;;3.92;;
11646;SDS011;5880;52.342;9.662;2023-09-08T07:21:52;4.03;;;3.63;;
11646;SDS011;5880;52.342;9.662;2023-09-08T07:24:18;3.90;;;3.60;;
11646;SDS011;5880;52.342;9.662;2023-09-08T07:26:43;3.83;;;3.53;;
11646;SDS011;5880;52.342;9.662;2023-09-08T07:29:09;3.97;;;3.67;;
11646;SDS011;5880;52.342;9.662;2023-09-08T07:31:35;3.80;;;3.50;;
11646;SDS011;5880;52.342;9.662;2023-09-08T07:34:01;3.72;;;3.42;;
11646;SDS011;5880;52.342;9.662;2023-09-08T07:36:26;4.00;;;3.70;;
11646;SDS011;5880;52.342;9.662;2023-09-08T07:38:52;3.78;;;3.50;;
11646;SDS011;5880;52.342;9.662;2023-09-08T07:41:18;4.00;;;3.40;;
11646;SDS011;5880;52.342;9.662;2023-09-08T07:43:43;4.90;;;3.50;;
11646;SDS011;5880;52.342;9.662;2023-09-08T07:46:10;3.97;;;3.67;;
11646;SDS011;5880;52.342;9.662;2023-09-08T07:48:36;3.90;;;3.60;;
11646;SDS011;5880;52.342;9.662;2023-09-08T07:51:02;4.32;;;3.92;;
11646;SDS011;5880;52.342;9.662;2023-09-08T07:53:27;4.28;;;3.88;;
11646;SDS011;5880;52.342;9.662;2023-09-08T07:55:53;3.97;;;3.67;;
11646;SDS011;5880;52.342;9.662;2023-09-08T07:58:19;3.97;;;3.65;;
11646;SDS011;5880;52.342;9.662;2023-09-08T08:00:44;3.95;;;3.65;;
11646;SDS011;5880;52.342;9.662;2023-09-08T08:03:10;3.97;;;3.67;;
11646;SDS011;5880;52.342;9.662;2023-09-08T08:05:36;3.70;;;3.40;;
11646;SDS011;5880;52.342;9.662;2023-09-08T08:08:01;5.10;;;3.78;;
11646;SDS011;5880;52.342;9.662;2023-09-08T08:10:27;4.15;;;3.85;;
11646;SDS011;5880;52.342;9.662;2023-09-08T08:12:53;4.20;;;3.80;;
11646;SDS011;5880;52.342;9.662;2023-09-08T08:15:19;4.20;;;3.80;;
11646;SDS011;5880;52.342;9.662;2023-09-08T08:17:49;4.57;;;3.95;;
11646;SDS011;5880;52.342;9.662;2023-09-08T08:20:14;4.00;;;3.60;;
11646;SDS011;5880;52.342;9.662;2023-09-08T08:22:43;4.13;;;3.70;;
11646;SDS011;5880;52.342;9.662;2023-09-08T08:25:10;4.13;;;3.72;;
11646;SDS011;5880;52.342;9.662;2023-09-08T08:27:37;4.13;;;3.72;;
11646;SDS011;5880;52.342;9.662;2023-09-08T08:30:04;3.80;;;3.50;;
11646;SDS011;5880;52.342;9.662;2023-09-08T08:32:31;4.68;;;3.90;;
11646;SDS011;5880;52.342;9.662;2023-09-08T08:34:58;3.80;;;3.50;;
11646;SDS011;5880;52.342;9.662;2023-09-08T08:37:23;4.38;;;3.65;;
11646;SDS011;5880;52.342;9.662;2023-09-08T08:39:49;4.40;;;4.00;;
11646;SDS011;5880;52.342;9.662;2023-09-08T08:42:15;4.45;;;4.03;;
11646;SDS011;5880;52.342;9.662;2023-09-08T08:44:40;4.35;;;3.95;;
11646;SDS011;5880;52.342;9.662;2023-09-08T08:47:07;4.50;;;4.10;;
11646;SDS011;5880;52.342;9.662;2023-09-08T08:49:35;3.80;;;3.40;;
11646;SDS011;5880;52.342;9.662;2023-09-08T08:52:03;4.50;;;4.10;;
11646;SDS011;5880;52.342;9.662;2023-09-08T08:54:39;4.00;;;3.60;;
11646;SDS011;5880;52.342;9.662;2023-09-08T08:57:05;4.22;;;3.85;;
11646;SDS011;5880;52.342;9.662;2023-09-08T08:59:32;4.55;;;4.15;;
11646;SDS011;5880;52.342;9.662;2023-09-08T09:01:58;4.10;;;3.80;;
11646;SDS011;5880;52.342;9.662;2023-09-08T09:04:26;5.20;;;3.90;;
11646;SDS011;5880;52.342;9.662;2023-09-08T09:06:53;4.00;;;3.70;;
11646;SDS011;5880;52.342;9.662;2023-09-08T09:09:19;4.38;;;4.00;;
11646;SDS011;5880;52.342;9.662;2023-09-08T09:11:45;4.18;;;3.78;;
11646;SDS011;5880;52.342;9.662;2023-09-08T09:14:11;4.40;;;3.90;;
11646;SDS011;5880;52.342;9.662;2023-09-08T09:16:40;5.15;;;3.90;;
11646;SDS011;5880;52.342;9.662;2023-09-08T09:19:08;6.38;;;4.20;;
11646;SDS011;5880;52.342;9.662;2023-09-08T09:21:44;4.20;;;3.80;;
11646;SDS011;5880;52.342;9.662;2023-09-08T09:24:16;3.85;;;3.55;;
11646;SDS011;5880;52.342;9.662;2023-09-08T09:26:52;3.70;;;3.40;;
11646;SDS011;5880;52.342;9.662;2023-09-08T09:29:18;3.60;;;3.30;;
11646;SDS011;5880;52.342;9.662;2023-09-08T09:31:51;3.90;;;3.60;;
11646;SDS011;5880;52.342;9.662;2023-09-08T09:34:22;4.10;;;3.70;;
11646;SDS011;5880;52.342;9.662;2023-09-08T09:36:51;5.05;;;3.72;;
11646;SDS011;5880;52.342;9.662;2023-09-08T09:39:20;3.90;;;3.60;;
11646;SDS011;5880;52.342;9.662;2023-09-08T09:41:54;3.80;;;3.50;;
11646;SDS011;5880;52.342;9.662;2023-09-08T09:44:22;4.55;;;3.55;;
11646;SDS011;5880;52.342;9.662;2023-09-08T09:46:51;3.95;;;3.53;;
11646;SDS011;5880;52.342;9.662;2023-09-08T09:49:18;4.28;;;3.92;;
11646;SDS011;5880;52.342;9.662;2023-09-08T09:51:44;3.83;;;3.53;;
11646;SDS011;5880;52.342;9.662;2023-09-08T09:54:13;4.03;;;3.72;;
11646;SDS011;5880;52.342;9.662;2023-09-08T09:56:40;4.10;;;3.80;;
11646;SDS011;5880;52.342;9.662;2023-09-08T09:59:07;3.95;;;3.35;;
11646;SDS011;5880;52.342;9.662;2023-09-08T10:01:35;3.67;;;3.40;;
11646;SDS011;5880;52.342;9.662;2023-09-08T10:04:02;4.28;;;3.90;;
11646;SDS011;5880;52.342;9.662;2023-09-08T10:06:33;4.05;;;3.67;;
11646;SDS011;5880;52.342;9.662;2023-09-08T10:09:05;4.00;;;3.65;;
11646;SDS011;5880;52.342;9.662;2023-09-08T10:11:42;4.57;;;3.50;;
11646;SDS011;5880;52.342;9.662;2023-09-08T10:14:16;3.97;;;3.60;;
11646;SDS011;5880;52.342;9.662;2023-09-08T10:16:44;3.78;;;3.47;;
11646;SDS011;5880;52.342;9.662;2023-09-08T10:19:14;5.07;;;3.60;;
11646;SDS011;5880;52.342;9.662;2023-09-08T10:21:42;4.60;;;3.70;;
11646;SDS011;5880;52.342;9.662;2023-09-08T10:26:44;4.05;;;3.55;;
11646;SDS011;5880;52.342;9.662;2023-09-08T10:29:20;3.50;;;3.20;;
11646;SDS011;5880;52.342;9.662;2023-09-08T10:31:47;3.80;;;3.50;;
11646;SDS011;5880;52.342;9.662;2023-09-08T10:34:14;4.65;;;3.58;;
11646;SDS011;5880;52.342;9.662;2023-09-08T10:36:41;3.72;;;3.42;;
11646;SDS011;5880;52.342;9.662;2023-09-08T10:44:43;3.75;;;3.38;;
11646;SDS011;5880;52.342;9.662;2023-09-08T10:49:55;3.90;;;3.60;;
11646;SDS011;5880;52.342;9.662;2023-09-08T10:52:23;5.32;;;3.55;;
11646;SDS011;5880;52.342;9.662;2023-09-08T10:54:50;3.58;;;3.28;;
11646;SDS011;5880;52.342;9.662;2023-09-08T10:57:22;3.67;;;3.38;;
11646;SDS011;5880;52.342;9.662;2023-09-08T10:59:53;4.43;;;3.38;;
11646;SDS011;5880;52.342;9.662;2023-09-08T11:02:40;3.88;;;3.47;;
11646;SDS011;5880;52.342;9.662;2023-09-08T11:05:13;4.30;;;3.90;;
11646;SDS011;5880;52.342;9.662;2023-09-08T11:07:43;5.78;;;3.65;;
11646;SDS011;5880;52.342;9.662;2023-09-08T11:10:11;3.88;;;3.58;;
11646;SDS011;5880;52.342;9.662;2023-09-08T11:12:38;3.92;;;3.58;;
11646;SDS011;5880;52.342;9.662;2023-09-08T11:15:04;3.63;;;3.33;;
11646;SDS011;5880;52.342;9.662;2023-09-08T11:17:33;3.75;;;3.45;;
11646;SDS011;5880;52.342;9.662;2023-09-08T11:20:04;3.60;;;3.30;;
11646;SDS011;5880;52.342;9.662;2023-09-08T11:22:35;3.13;;;2.83;;
11646;SDS011;5880;52.342;9.662;2023-09-08T11:25:04;3.75;;;3.30;;
11646;SDS011;5880;52.342;9.662;2023-09-08T11:27:33;3.60;;;3.30;;
11646;SDS011;5880;52.342;9.662;2023-09-08T11:29:59;3.50;;;3.20;;
11646;SDS011;5880;52.342;9.662;2023-09-08T11:32:25;3.75;;;3.45;;
11646;SDS011;5880;52.342;9.662;2023-09-08T11:35:03;3.50;;;3.20;;
11646;SDS011;5880;52.342;9.662;2023-09-08T11:37:37;3.67;;;3.38;;
11646;SDS011;5880;52.342;9.662;2023-09-08T11:40:05;3.35;;;2.92;;
11646;SDS011;5880;52.342;9.662;2023-09-08T11:42:38;3.50;;;3.30;;
11646;SDS011;5880;52.342;9.662;2023-09-08T11:45:12;2.97;;;2.78;;
11646;SDS011;5880;52.342;9.662;2023-09-08T11:47:46;3.53;;;3.22;;
11646;SDS011;5880;52.342;9.662;2023-09-08T11:50:14;3.45;;;2.88;;
11646;SDS011;5880;52.342;9.662;2023-09-08T11:52:48;2.90;;;2.70;;
11646;SDS011;5880;52.342;9.662;2023-09-08T11:55:18;3.30;;;3.00;;
11646;SDS011;5880;52.342;9.662;2023-09-08T11:57:51;2.80;;;2.60;;
11646;SDS011;5880;52.342;9.662;2023-09-08T12:00:22;2.80;;;2.60;;
11646;SDS011;5880;52.342;9.662;2023-09-08T12:02:51;3.25;;;2.63;;
11646;SDS011;5880;52.342;9.662;2023-09-08T12:07:48;2.50;;;2.30;;
11646;SDS011;5880;52.342;9.662;2023-09-08T12:10:18;2.58;;;2.38;;
11646;SDS011;5880;52.342;9.662;2023-09-08T12:12:51;2.90;;;2.60;;
11646;SDS011;5880;52.342;9.662;2023-09-08T12:15:32;6.10;;;2.38;;
11646;SDS011;5880;52.342;9.662;2023-09-08T12:18:06;2.13;;;2.03;;
11646;SDS011;5880;52.342;9.662;2023-09-08T12:20:35;2.28;;;2.08;;
11646;SDS011;5880;52.342;9.662;2023-09-08T12:23:14;2.22;;;2.03;;
11646;SDS011;5880;52.342;9.662;2023-09-08T12:25:47;3.10;;;2.30;;
11646;SDS011;5880;52.342;9.662;2023-09-08T12:28:17;2.50;;;2.30;;
11646;SDS011;5880;52.342;9.662;2023-09-08T12:30:45;2.45;;;2.25;;
11646;SDS011;5880;52.342;9.662;2023-09-08T12:33:11;2.00;;;1.90;;
11646;SDS011;5880;52.342;9.662;2023-09-08T12:35:42;2.90;;;2.13;;
11646;SDS011;5880;52.342;9.662;2023-09-08T12:38:09;2.47;;;2.28;;
11646;SDS011;5880;52.342;9.662;2023-09-08T12:40:36;3.65;;;2.13;;
11646;SDS011;5880;52.342;9.662;2023-09-08T12:43:03;1.83;;;1.73;;
11646;SDS011;5880;52.342;9.662;2023-09-08T12:45:30;2.28;;;2.08;;
11646;SDS011;5880;52.342;9.662;2023-09-08T12:48:00;2.60;;;2.40;;
11646;SDS011;5880;52.342;9.662;2023-09-08T12:50:27;1.98;;;1.88;;
11646;SDS011;5880;52.342;9.662;2023-09-08T12:52:53;3.03;;;2.30;;
11646;SDS011;5880;52.342;9.662;2023-09-08T12:55:19;2.10;;;1.90;;
11646;SDS011;5880;52.342;9.662;2023-09-08T12:57:46;1.90;;;1.80;;
11646;SDS011;5880;52.342;9.662;2023-09-08T13:00:12;2.15;;;1.95;;
11646;SDS011;5880;52.342;9.662;2023-09-08T13:02:38;1.80;;;1.70;;
11646;SDS011;5880;52.342;9.662;2023-09-08T13:05:06;2.70;;;1.90;;
11646;SDS011;5880;52.342;9.662;2023-09-08T13:07:33;1.90;;;1.77;;
11646;SDS011;5880;52.342;9.662;2023-09-08T13:09:59;1.60;;;1.50;;
11646;SDS011;5880;52.342;9.662;2023-09-08T13:12:24;1.92;;;1.83;;
11646;SDS011;5880;52.342;9.662;2023-09-08T13:14:50;2.10;;;1.90;;
11646;SDS011;5880;52.342;9.662;2023-09-08T13:17:16;2.60;;;1.77;;
11646;SDS011;5880;52.342;9.662;2023-09-08T13:19:42;1.80;;;1.70;;
11646;SDS011;5880;52.342;9.662;2023-09-08T13:22:10;2.00;;;1.90;;
11646;SDS011;5880;52.342;9.662;2023-09-08T13:24:36;2.10;;;1.90;;
11646;SDS011;5880;52.342;9.662;2023-09-08T13:27:02;1.80;;;1.70;;
11646;SDS011;5880;52.342;9.662;2023-09-08T13:29:29;1.75;;;1.65;;
11646;SDS011;5880;52.342;9.662;2023-09-08T13:31:55;1.92;;;1.83;;
11646;SDS011;5880;52.342;9.662;2023-09-08T13:34:22;1.90;;;1.70;;
11646;SDS011;5880;52.342;9.662;2023-09-08T13:36:47;1.67;;;1.58;;
11646;SDS011;5880;52.342;9.662;2023-09-08T13:39:13;1.70;;;1.60;;
11646;SDS011;5880;52.342;9.662;2023-09-08T13:41:44;1.65;;;1.55;;
11646;SDS011;5880;52.342;9.662;2023-09-08T13:44:21;1.77;;;1.67;;
11646;SDS011;5880;52.342;9.662;2023-09-08T13:46:49;1.83;;;1.73;;
11646;SDS011;5880;52.342;9.662;2023-09-08T13:49:16;1.70;;;1.60;;
11646;SDS011;5880;52.342;9.662;2023-09-08T13:51:43;1.77;;;1.67;;
11646;SDS011;5880;52.342;9.662;2023-09-08T13:54:10;1.70;;;1.60;;
11646;SDS011;5880;52.342;9.662;2023-09-08T13:56:39;1.92;;;1.80;;
11646;SDS011;5880;52.342;9.662;2023-09-08T13:59:06;1.90;;;1.60;;
11646;SDS011;5880;52.342;9.662;2023-09-08T14:01:36;1.80;;;1.70;;
11646;SDS011;5880;52.342;9.662;2023-09-08T14:04:05;1.70;;;1.60;;
11646;SDS011;5880;52.342;9.662;2023-09-08T14:06:33;1.83;;;1.73;;
11646;SDS011;5880;52.342;9.662;2023-09-08T14:08:59;1.67;;;1.58;;
11646;SDS011;5880;52.342;9.662;2023-09-08T14:11:25;1.50;;;1.40;;
11646;SDS011;5880;52.342;9.662;2023-09-08T14:13:52;1.75;;;1.65;;
11646;SDS011;5880;52.342;9.662;2023-09-08T14:16:18;1.42;;;1.33;;
11646;SDS011;5880;52.342;9.662;2023-09-08T14:18:44;2.83;;;1.70;;
11646;SDS011;5880;52.342;9.662;2023-09-08T14:21:10;1.50;;;1.40;;
11646;SDS011;5880;52.342;9.662;2023-09-08T14:23:36;1.67;;;1.58;;
11646;SDS011;5880;52.342;9.662;2023-09-08T14:26:05;1.42;;;1.33;;
11646;SDS011;5880;52.342;9.662;2023-09-08T14:28:32;1.77;;;1.67;;
11646;SDS011;5880;52.342;9.662;2023-09-08T14:30:58;1.75;;;1.42;;
11646;SDS011;5880;52.342;9.662;2023-09-08T14:33:24;1.88;;;1.77;;
11646;SDS011;5880;52.342;9.662;2023-09-08T14:35:50;1.52;;;1.42;;
11646;SDS011;5880;52.342;9.662;2023-09-08T14:38:23;1.70;;;1.60;;
11646;SDS011;5880;52.342;9.662;2023-09-08T14:40:56;2.50;;;1.38;;
11646;SDS011;5880;52.342;9.662;2023-09-08T14:43:23;1.67;;;1.58;;
11646;SDS011;5880;52.342;9.662;2023-09-08T14:45:50;1.80;;;1.55;;
11646;SDS011;5880;52.342;9.662;2023-09-08T14:48:17;1.70;;;1.60;;
11646;SDS011;5880;52.342;9.662;2023-09-08T14:50:43;1.77;;;1.67;;
11646;SDS011;5880;52.342;9.662;2023-09-08T14:53:09;1.88;;;1.60;;
11646;SDS011;5880;52.342;9.662;2023-09-08T14:55:35;1.65;;;1.55;;
11646;SDS011;5880;52.342;9.662;2023-09-08T14:58:01;1.95;;;1.70;;
11646;SDS011;5880;52.342;9.662;2023-09-08T15:00:26;1.88;;;1.70;;
11646;SDS011;5880;52.342;9.662;2023-09-08T15:02:53;1.77;;;1.67;;
11646;SDS011;5880;52.342;9.662;2023-09-08T15:05:18;1.92;;;1.63;;
11646;SDS011;5880;52.342;9.662;2023-09-08T15:07:44;1.70;;;1.60;;
11646;SDS011;5880;52.342;9.662;2023-09-08T15:10:10;1.90;;;1.70;;
11646;SDS011;5880;52.342;9.662;2023-09-08T15:12:36;1.80;;;1.70;;
11646;SDS011;5880;52.342;9.662;2023-09-08T15:15:02;1.67;;;1.58;;
11646;SDS011;5880;52.342;9.662;2023-09-08T15:17:28;1.80;;;1.60;;